createdAt,value
2023-04-14T00:00:36.697Z,2.13
2023-04-14T00:03:03.663Z,2.20
2023-04-14T00:05:31.294Z,2.30
2023-04-14T00:07:57.976Z,2.00
2023-04-14T00:10:25.574Z,2.27
2023-04-14T00:12:52.181Z,2.27
2023-04-14T00:15:18.912Z,2.10
2023-04-14T00:17:45.489Z,2.40
2023-04-14T00:20:12.125Z,2.57
2023-04-14T00:22:38.672Z,2.10
2023-04-14T00:25:05.637Z,2.37
2023-04-14T00:27:32.134Z,3.13
2023-04-14T00:29:58.640Z,3.10
2023-04-14T00:32:25.232Z,1.80
2023-04-14T00:34:51.736Z,2.70
2023-04-14T00:37:18.246Z,2.27
2023-04-14T00:39:44.712Z,1.97
2023-04-14T00:42:11.611Z,2.30
2023-04-14T00:44:38.082Z,2.40
2023-04-14T00:47:05.537Z,2.77
2023-04-14T00:49:32.565Z,2.87
2023-04-14T00:51:59.466Z,2.03
2023-04-14T00:54:26.560Z,1.73
2023-04-14T00:56:53.986Z,2.30
2023-04-14T00:59:20.905Z,2.73
2023-04-14T01:01:47.935Z,2.70
2023-04-14T01:04:15.929Z,3.40
2023-04-14T01:06:42.442Z,2.77
2023-04-14T01:09:09.810Z,2.63
2023-04-14T01:12:00.339Z,2.30
2023-04-14T01:14:44.894Z,2.60
2023-04-14T01:17:34.701Z,2.27
2023-04-14T01:20:14.552Z,2.43
2023-04-14T01:22:49.196Z,2.37
2023-04-14T01:25:51.236Z,2.33
2023-04-14T01:28:35.647Z,1.93
2023-04-14T01:31:22.417Z,2.03
2023-04-14T01:34:15.351Z,2.70
2023-04-14T01:36:50.577Z,1.97
2023-04-14T01:39:21.233Z,1.70
2023-04-14T01:41:52.292Z,1.43
2023-04-14T01:44:22.332Z,1.83
2023-04-14T01:46:51.995Z,1.47
2023-04-14T01:49:20.887Z,0.93
2023-04-14T01:51:49.135Z,1.40
2023-04-14T01:54:17.963Z,1.10
2023-04-14T01:56:46.530Z,1.23
2023-04-14T01:59:14.390Z,2.07
2023-04-14T02:01:42.945Z,1.03
2023-04-14T02:04:10.061Z,1.90
2023-04-14T02:06:39.824Z,1.63
2023-04-14T02:09:10.402Z,1.40
2023-04-14T02:11:38.454Z,1.90
2023-04-14T02:14:07.837Z,2.03
2023-04-14T02:16:36.641Z,2.13
2023-04-14T02:19:05.558Z,2.20
2023-04-14T02:21:35.245Z,2.27
2023-04-14T02:24:03.366Z,2.60
2023-04-14T02:26:36.718Z,2.70
2023-04-14T02:29:11.367Z,2.70
2023-04-14T02:31:44.299Z,2.40
2023-04-14T02:34:13.451Z,2.30
2023-04-14T02:36:48.052Z,3.00
2023-04-14T02:39:28.072Z,2.87
2023-04-14T02:42:02.213Z,2.17
2023-04-14T02:44:34.112Z,1.70
2023-04-14T02:47:09.450Z,1.27
2023-04-14T02:49:46.765Z,1.60
2023-04-14T02:52:17.495Z,1.80
2023-04-14T02:54:47.937Z,1.40
2023-04-14T02:57:15.649Z,1.60
2023-04-14T02:59:47.194Z,1.40
2023-04-14T03:02:16.464Z,1.13
2023-04-14T03:04:49.576Z,1.17
2023-04-14T03:07:26.079Z,1.70
2023-04-14T03:09:53.221Z,1.67
2023-04-14T03:12:22.492Z,1.43
2023-04-14T03:14:51.143Z,1.33
2023-04-14T03:17:20.963Z,1.90
2023-04-14T03:19:51.080Z,1.57
2023-04-14T03:22:19.638Z,1.77
2023-04-14T03:24:47.236Z,1.50
2023-04-14T03:27:18.944Z,1.40
2023-04-14T03:29:47.838Z,1.80
2023-04-14T03:32:17.275Z,2.77
2023-04-14T03:34:51.682Z,2.30
2023-04-14T03:37:24.263Z,2.33
2023-04-14T03:39:52.874Z,3.10
2023-04-14T03:42:24.949Z,2.47
2023-04-14T03:44:54.189Z,2.77
2023-04-14T03:47:24.396Z,3.33
2023-04-14T03:49:56.945Z,3.23
2023-04-14T03:52:24.940Z,2.77
2023-04-14T03:54:55.365Z,3.30
2023-04-14T03:57:23.628Z,3.80
2023-04-14T03:59:52.715Z,3.57
2023-04-14T04:02:25.649Z,3.47
2023-04-14T04:04:54.493Z,4.00
2023-04-14T04:07:21.959Z,4.07
2023-04-14T04:09:50.638Z,4.17
2023-04-14T04:12:20.542Z,4.70
2023-04-14T04:14:47.107Z,5.40
2023-04-14T04:17:17.192Z,4.20
2023-04-14T04:19:45.473Z,4.70
2023-04-14T04:22:17.052Z,5.03
2023-04-14T04:24:45.548Z,5.57
2023-04-14T04:27:27.777Z,5.80
2023-04-14T04:30:00.041Z,6.40
2023-04-14T04:32:27.554Z,6.90
2023-04-14T04:34:54.636Z,7.17
2023-04-14T04:37:21.832Z,5.97
2023-04-14T04:39:48.842Z,6.33
2023-04-14T04:42:16.973Z,6.33
2023-04-14T04:44:43.578Z,6.50
2023-04-14T04:47:11.936Z,6.50
2023-04-14T04:49:38.502Z,7.07
2023-04-14T04:52:05.306Z,6.77
2023-04-14T04:54:31.785Z,7.40
2023-04-14T04:56:58.725Z,6.03
2023-04-14T04:59:25.876Z,5.63
2023-04-14T05:01:52.675Z,6.87
2023-04-14T05:04:19.318Z,6.37
2023-04-14T05:06:45.888Z,6.50
2023-04-14T05:09:12.336Z,6.70
2023-04-14T05:11:38.808Z,6.93
2023-04-14T05:14:05.378Z,6.07
2023-04-14T05:16:32.050Z,7.20
2023-04-14T05:18:59.016Z,6.23
2023-04-14T05:21:25.756Z,7.17
2023-04-14T05:23:52.216Z,5.03
2023-04-14T05:28:47.992Z,6.90
2023-04-14T05:31:14.488Z,7.10
2023-04-14T05:33:41.060Z,5.43
2023-04-14T05:36:07.923Z,5.53
2023-04-14T05:38:39.902Z,6.40
2023-04-14T05:41:07.292Z,6.40
2023-04-14T05:43:34.013Z,6.70
2023-04-14T05:46:01.532Z,6.53
2023-04-14T05:48:30.454Z,7.47
2023-04-14T05:50:57.817Z,7.07
2023-04-14T05:53:24.363Z,6.00
2023-04-14T05:55:53.939Z,6.23
2023-04-14T05:58:20.438Z,6.40
2023-04-14T06:00:46.999Z,6.13
2023-04-14T06:03:13.810Z,6.57
2023-04-14T06:05:40.521Z,5.97
2023-04-14T06:08:06.978Z,6.90
2023-04-14T06:10:35.488Z,6.20
2023-04-14T06:13:01.974Z,6.03
2023-04-14T06:15:29.619Z,6.60
2023-04-14T06:17:56.262Z,5.80
2023-04-14T06:20:22.829Z,6.60
2023-04-14T06:22:49.304Z,6.73
2023-04-14T06:25:16.365Z,6.40
2023-04-14T06:27:43.149Z,6.90
2023-04-14T06:30:09.998Z,5.73
2023-04-14T06:32:36.825Z,5.63
2023-04-14T06:35:04.847Z,5.83
2023-04-14T06:37:32.100Z,7.10
2023-04-14T06:39:58.541Z,5.67
2023-04-14T06:42:25.700Z,5.40
2023-04-14T06:44:52.280Z,4.70
2023-04-14T06:47:19.828Z,5.40
2023-04-14T06:49:46.415Z,4.83
2023-04-14T06:52:12.970Z,5.20
2023-04-14T06:54:39.451Z,4.90
2023-04-14T06:57:05.903Z,5.30
2023-04-14T06:59:32.361Z,4.23
2023-04-14T07:01:59.035Z,4.63
2023-04-14T07:04:26.093Z,4.03
2023-04-14T07:06:52.631Z,5.00
2023-04-14T07:09:19.560Z,4.33
2023-04-14T07:11:46.500Z,4.63
2023-04-14T07:14:12.960Z,3.80
2023-04-14T07:16:39.532Z,5.90
2023-04-14T07:19:06.071Z,4.33
2023-04-14T07:21:32.601Z,4.17
2023-04-14T07:23:59.298Z,4.37
2023-04-14T07:26:25.888Z,3.23
2023-04-14T07:28:52.699Z,4.10
2023-04-14T07:31:19.251Z,4.77
2023-04-14T07:33:45.839Z,3.73
2023-04-14T07:36:12.683Z,4.50
2023-04-14T07:38:39.226Z,4.00
2023-04-14T07:41:07.030Z,4.00
2023-04-14T07:43:37.038Z,3.97
2023-04-14T07:46:05.643Z,4.50
2023-04-14T07:48:33.539Z,3.77
2023-04-14T07:51:00.049Z,3.47
2023-04-14T07:53:26.609Z,3.90
2023-04-14T07:55:53.150Z,3.77
2023-04-14T07:58:19.827Z,4.20
2023-04-14T08:00:46.696Z,4.43
2023-04-14T08:03:13.856Z,3.97
2023-04-14T08:05:42.121Z,3.70
2023-04-14T08:08:10.115Z,4.97
2023-04-14T08:10:38.814Z,4.60
2023-04-14T08:13:05.383Z,4.30
2023-04-14T08:15:32.312Z,4.70
2023-04-14T08:17:58.922Z,5.20
2023-04-14T08:20:25.485Z,4.70
2023-04-14T08:22:52.426Z,3.90
2023-04-14T08:25:18.917Z,3.90
2023-04-14T08:27:45.667Z,4.80
2023-04-14T08:30:12.608Z,4.83
2023-04-14T08:32:39.237Z,5.03
2023-04-14T08:35:39.096Z,4.30
2023-04-14T08:37:52.860Z,4.87
2023-04-14T08:40:21.962Z,5.77
2023-04-14T08:42:48.456Z,4.73
2023-04-14T08:45:15.019Z,6.40
2023-04-14T08:47:43.442Z,4.53
2023-04-14T08:50:15.397Z,4.13
2023-04-14T08:52:42.811Z,4.10
2023-04-14T08:55:11.065Z,3.70
2023-04-14T08:57:38.350Z,4.13
2023-04-14T09:00:05.869Z,4.63
2023-04-14T09:02:33.608Z,4.37
2023-04-14T09:05:01.189Z,4.47
2023-04-14T09:07:29.880Z,4.83
2023-04-14T09:09:57.603Z,4.60
2023-04-14T09:12:27.238Z,5.40
2023-04-14T09:14:54.957Z,4.67
2023-04-14T09:17:22.074Z,5.33
2023-04-14T09:20:34.788Z,4.23
2023-04-14T09:22:36.251Z,4.87
2023-04-14T09:25:03.379Z,3.20
2023-04-14T09:27:30.022Z,3.23
2023-04-14T09:29:57.471Z,4.30
2023-04-14T09:32:24.024Z,4.80
2023-04-14T09:34:56.559Z,4.57
2023-04-14T09:37:24.782Z,4.37
2023-04-14T09:39:52.462Z,3.43
2023-04-14T09:42:19.146Z,4.47
2023-04-14T09:44:56.796Z,4.20
2023-04-14T09:47:24.714Z,3.70
2023-04-14T09:49:57.551Z,3.80
2023-04-14T09:52:37.189Z,4.13
2023-04-14T09:55:14.744Z,3.80
2023-04-14T09:57:42.793Z,4.37
2023-04-14T10:00:15.735Z,4.70
2023-04-14T10:02:58.059Z,4.10
2023-04-14T10:05:29.307Z,4.53
2023-04-14T10:08:03.530Z,4.70
2023-04-14T10:10:30.092Z,4.77
2023-04-14T10:12:56.593Z,4.53
2023-04-14T10:15:23.194Z,3.87
2023-04-14T10:17:49.986Z,4.50
2023-04-14T10:20:17.039Z,3.43
2023-04-14T10:22:43.713Z,3.43
2023-04-14T10:25:10.846Z,3.77
2023-04-14T10:27:38.866Z,4.30
2023-04-14T10:30:08.645Z,3.53
2023-04-14T10:32:37.449Z,3.67
2023-04-14T10:35:05.449Z,3.60
2023-04-14T10:37:33.112Z,3.00
2023-04-14T10:40:01.691Z,3.13
2023-04-14T10:42:32.862Z,3.43
2023-04-14T10:45:07.668Z,2.93
2023-04-14T10:47:36.150Z,3.37
2023-04-14T10:50:14.842Z,4.00
2023-04-14T10:52:54.221Z,3.10
2023-04-14T10:55:25.771Z,3.80
2023-04-14T10:57:54.520Z,4.10
2023-04-14T11:00:25.322Z,3.63
2023-04-14T11:03:03.248Z,3.60
2023-04-14T11:05:34.006Z,3.83
2023-04-14T11:08:12.896Z,3.90
2023-04-14T11:10:39.711Z,2.80
2023-04-14T11:13:12.665Z,3.27
2023-04-14T11:15:48.489Z,4.00
2023-04-14T11:18:35.706Z,3.30
2023-04-14T11:21:11.980Z,3.07
2023-04-14T11:23:38.881Z,2.97
2023-04-14T11:26:08.041Z,2.97
2023-04-14T11:28:36.380Z,3.17
2023-04-14T11:31:06.051Z,3.63
2023-04-14T11:33:37.894Z,4.10
2023-04-14T11:36:07.077Z,3.83
2023-04-14T11:38:40.182Z,3.37
2023-04-14T11:41:07.157Z,3.23
2023-04-14T11:43:33.771Z,2.93
2023-04-14T11:46:00.678Z,2.17
2023-04-14T11:48:28.928Z,3.50
2023-04-14T11:51:01.064Z,2.80
2023-04-14T11:53:27.594Z,2.47
2023-04-14T11:55:54.236Z,2.57
2023-04-14T11:58:25.808Z,2.50
2023-04-14T12:00:56.017Z,2.50
2023-04-14T12:03:27.789Z,2.00
2023-04-14T12:05:59.773Z,1.47
2023-04-14T12:08:30.056Z,2.50
2023-04-14T12:10:57.703Z,3.33
2023-04-14T12:13:26.335Z,3.30
2023-04-14T12:15:54.334Z,2.67
2023-04-14T12:18:21.568Z,2.00
2023-04-14T12:20:53.762Z,2.10
2023-04-14T12:23:20.512Z,1.07
2023-04-14T12:25:50.600Z,1.47
2023-04-14T12:28:30.424Z,1.80
2023-04-14T12:31:01.378Z,1.50
2023-04-14T12:33:29.107Z,1.70
2023-04-14T12:36:07.710Z,2.10
2023-04-14T12:38:34.453Z,2.40
2023-04-14T12:41:01.326Z,2.00
2023-04-14T12:43:36.798Z,1.87
2023-04-14T12:46:04.668Z,2.83
2023-04-14T12:48:46.024Z,2.50
2023-04-14T12:51:17.274Z,3.30
2023-04-14T12:53:45.346Z,3.20
2023-04-14T12:56:27.364Z,2.37
2023-04-14T12:58:54.342Z,3.03
2023-04-14T13:01:21.792Z,1.90
2023-04-14T13:03:51.738Z,1.43
2023-04-14T13:06:20.356Z,1.10
2023-04-14T13:08:51.453Z,1.80
2023-04-14T13:11:19.846Z,1.10
2023-04-14T13:13:46.534Z,1.37
2023-04-14T13:16:18.543Z,0.80
2023-04-14T13:18:47.787Z,1.37
2023-04-14T13:21:14.737Z,0.70
2023-04-14T13:23:41.595Z,0.70
2023-04-14T13:26:08.380Z,0.70
2023-04-14T13:28:35.191Z,0.70
2023-04-14T13:31:01.698Z,0.70
2023-04-14T13:33:28.192Z,0.90
2023-04-14T13:35:55.680Z,0.83
2023-04-14T13:38:22.414Z,0.80
2023-04-14T13:40:49.004Z,1.10
2023-04-14T13:43:18.043Z,0.87
2023-04-14T13:45:44.951Z,0.77
2023-04-14T13:48:11.588Z,1.27
2023-04-14T13:50:38.090Z,1.60
2023-04-14T13:53:04.652Z,1.53
2023-04-14T13:55:31.480Z,1.30
2023-04-14T13:57:57.952Z,1.53
2023-04-14T14:00:24.502Z,1.50
2023-04-14T14:02:52.071Z,1.93
2023-04-14T14:05:18.739Z,1.70
2023-04-14T14:07:45.513Z,2.80
2023-04-14T14:10:12.434Z,1.40
2023-04-14T14:12:38.941Z,1.87
2023-04-14T14:15:06.132Z,1.97
2023-04-14T14:17:32.754Z,1.77
2023-04-14T14:19:59.596Z,2.43
2023-04-14T14:22:26.382Z,2.27
2023-04-14T14:24:58.529Z,2.37
2023-04-14T14:27:27.582Z,1.50
2023-04-14T14:29:54.038Z,1.80
2023-04-14T14:32:20.869Z,1.33
2023-04-14T14:34:47.537Z,1.50
2023-04-14T14:37:18.219Z,1.47
2023-04-14T14:39:44.963Z,1.63
2023-04-14T14:42:11.434Z,1.40
2023-04-14T14:44:38.136Z,1.67
2023-04-14T14:47:05.329Z,1.40
2023-04-14T14:49:32.215Z,1.83
2023-04-14T14:51:58.753Z,1.60
2023-04-14T14:54:25.148Z,2.33
2023-04-14T14:56:51.580Z,1.87
2023-04-14T14:59:18.019Z,1.80
2023-04-14T15:01:44.630Z,1.70
2023-04-14T15:04:12.074Z,1.90
2023-04-14T15:06:38.579Z,2.27
2023-04-14T15:09:05.430Z,2.70
2023-04-14T15:11:32.141Z,2.00
2023-04-14T15:14:00.032Z,1.90
2023-04-14T15:16:27.523Z,2.00
2023-04-14T15:18:54.087Z,1.80
2023-04-14T15:21:20.502Z,2.03
2023-04-14T15:23:47.018Z,1.63
2023-04-14T15:26:14.109Z,1.50
2023-04-14T15:28:41.068Z,1.23
2023-04-14T15:31:08.337Z,1.90
2023-04-14T15:33:34.939Z,2.03
2023-04-14T15:36:01.633Z,1.97
2023-04-14T15:38:28.118Z,1.10
2023-04-14T15:40:54.553Z,1.30
2023-04-14T15:43:21.499Z,1.97
2023-04-14T15:45:48.025Z,1.27
2023-04-14T15:48:14.558Z,2.10
2023-04-14T15:50:44.757Z,4.03
2023-04-14T15:53:12.176Z,1.97
2023-04-14T15:55:39.787Z,1.73
2023-04-14T15:58:06.556Z,1.77
2023-04-14T16:00:33.347Z,1.70
2023-04-14T16:03:01.853Z,2.10
2023-04-14T16:05:28.747Z,2.73
2023-04-14T16:07:55.901Z,2.50
2023-04-14T16:10:23.225Z,2.13
2023-04-14T16:12:50.566Z,2.80
2023-04-14T16:15:17.473Z,2.30
2023-04-14T16:17:44.388Z,3.13
2023-04-14T16:20:12.618Z,2.60
2023-04-14T16:22:39.292Z,2.73
2023-04-14T16:25:07.037Z,3.13
2023-04-14T16:27:34.086Z,2.63
2023-04-14T16:30:00.669Z,2.90
2023-04-14T16:32:27.422Z,3.20
2023-04-14T16:34:53.991Z,3.30
2023-04-14T16:37:21.038Z,3.93
2023-04-14T16:39:47.574Z,3.40
2023-04-14T16:42:18.516Z,3.80
2023-04-14T16:44:44.959Z,3.00
2023-04-14T16:47:11.461Z,3.77
2023-04-14T16:49:37.918Z,4.43
2023-04-14T16:52:04.497Z,4.57
2023-04-14T16:54:31.688Z,3.60
2023-04-14T16:56:58.182Z,3.87
2023-04-14T16:59:24.647Z,2.40
2023-04-14T17:01:51.376Z,3.80
2023-04-14T17:04:18.283Z,2.13
2023-04-14T17:06:46.037Z,3.27
2023-04-14T17:09:12.810Z,3.10
2023-04-14T17:11:39.329Z,2.77
2023-04-14T17:14:06.503Z,2.70
2023-04-14T17:16:33.257Z,3.77
2023-04-14T17:18:59.890Z,3.03
2023-04-14T17:21:26.549Z,2.90
2023-04-14T17:23:54.456Z,2.53
2023-04-14T17:26:21.292Z,3.37
2023-04-14T17:28:47.727Z,2.70
2023-04-14T17:31:14.372Z,5.37
2023-04-14T17:33:41.902Z,2.10
2023-04-14T17:36:09.582Z,2.67
2023-04-14T17:38:38.496Z,3.13
2023-04-14T17:41:06.140Z,2.70
2023-04-14T17:43:32.626Z,3.37
2023-04-14T17:45:59.227Z,2.80
2023-04-14T17:48:25.775Z,2.03
2023-04-14T17:50:52.821Z,2.60
2023-04-14T17:53:19.687Z,2.80
2023-04-14T17:55:46.403Z,2.20
2023-04-14T17:58:13.279Z,2.13
2023-04-14T18:00:40.052Z,3.40
2023-04-14T18:03:06.636Z,2.87
2023-04-14T18:05:33.108Z,4.70
2023-04-14T18:07:59.589Z,2.80
2023-04-14T18:10:26.375Z,3.10
2023-04-14T18:12:52.813Z,1.83
2023-04-14T18:15:19.739Z,2.67
2023-04-14T18:17:46.623Z,1.53
2023-04-14T18:20:14.480Z,1.87
2023-04-14T18:22:41.292Z,1.60
2023-04-14T18:25:09.035Z,1.53
2023-04-14T18:30:06.204Z,1.30
2023-04-14T18:32:33.173Z,1.70
2023-04-14T18:34:59.781Z,2.03
2023-04-14T18:37:26.314Z,1.50
2023-04-14T18:39:52.721Z,1.67
2023-04-14T18:42:19.202Z,1.40
2023-04-14T18:44:45.641Z,1.43
2023-04-14T18:47:12.294Z,1.63
2023-04-14T18:49:39.614Z,2.00
2023-04-14T18:52:06.095Z,2.00
2023-04-14T18:54:33.660Z,1.60
2023-04-14T18:57:00.960Z,2.00
2023-04-14T18:59:27.628Z,1.77
2023-04-14T19:01:54.229Z,1.13
2023-04-14T19:04:20.833Z,2.17
2023-04-14T19:06:50.202Z,1.53
2023-04-14T19:09:16.659Z,2.37
2023-04-14T19:11:45.311Z,1.60
2023-04-14T19:14:11.943Z,2.10
2023-04-14T19:16:38.600Z,1.63
2023-04-14T19:19:05.198Z,1.70
2023-04-14T19:21:31.876Z,1.90
2023-04-14T19:23:58.469Z,2.03
2023-04-14T19:26:25.115Z,2.17
2023-04-14T19:28:53.372Z,2.83
2023-04-14T19:31:21.441Z,2.87
2023-04-14T19:33:48.990Z,3.00
2023-04-14T19:36:17.060Z,3.67
2023-04-14T19:38:44.129Z,2.60
2023-04-14T19:41:10.670Z,2.90
2023-04-14T19:43:37.754Z,2.83
2023-04-14T19:46:09.384Z,3.00
2023-04-14T19:48:36.402Z,3.23
2023-04-14T19:51:04.007Z,3.40
2023-04-14T19:53:30.630Z,3.40
2023-04-14T19:55:58.225Z,3.07
2023-04-14T19:58:27.538Z,2.90
2023-04-14T20:00:56.955Z,3.73
2023-04-14T20:03:24.269Z,3.93
2023-04-14T20:05:55.602Z,4.80
2023-04-14T20:08:27.113Z,4.53
2023-04-14T20:10:54.246Z,4.00
2023-04-14T20:13:22.607Z,3.63
2023-04-14T20:15:49.813Z,3.23
2023-04-14T20:18:17.827Z,3.30
2023-04-14T20:20:45.722Z,3.37
2023-04-14T20:23:12.361Z,2.90
2023-04-14T20:25:39.184Z,3.40
2023-04-14T20:28:09.133Z,2.23
2023-04-14T20:30:35.756Z,3.50
2023-04-14T20:33:05.708Z,3.33
2023-04-14T20:35:36.051Z,2.60
2023-04-14T20:38:02.702Z,3.57
2023-04-14T20:40:30.097Z,3.13
2023-04-14T20:42:56.735Z,2.57
2023-04-14T20:45:23.433Z,3.17
2023-04-14T20:47:50.253Z,2.63
2023-04-14T20:50:18.537Z,2.83
2023-04-14T20:52:45.355Z,2.87
2023-04-14T20:55:13.354Z,3.20
2023-04-14T20:57:42.949Z,3.50
2023-04-14T21:00:15.355Z,3.10
2023-04-14T21:02:45.484Z,2.63
2023-04-14T21:05:12.687Z,2.83
2023-04-14T21:07:43.643Z,2.57
2023-04-14T21:10:11.836Z,3.23
2023-04-14T21:12:48.387Z,3.07
2023-04-14T21:15:48.699Z,3.07
2023-04-14T21:18:12.148Z,2.80
2023-04-14T21:20:38.664Z,2.77
2023-04-14T21:23:05.103Z,3.33
2023-04-14T21:25:32.597Z,2.87
2023-04-14T21:27:59.844Z,3.23
2023-04-14T21:30:26.352Z,3.13
2023-04-14T21:32:52.825Z,2.87
2023-04-14T21:35:19.578Z,3.50
2023-04-14T21:37:46.400Z,2.60
2023-04-14T21:40:13.132Z,3.07
2023-04-14T21:42:39.647Z,3.13
2023-04-14T21:45:07.755Z,3.20
2023-04-14T21:47:34.380Z,3.27
2023-04-14T21:50:01.198Z,3.87
2023-04-14T21:52:27.811Z,3.60
2023-04-14T21:54:54.266Z,3.83
2023-04-14T21:57:42.787Z,3.47
2023-04-14T22:00:13.046Z,3.63
2023-04-14T22:02:41.391Z,3.20
2023-04-14T22:05:08.725Z,3.00
2023-04-14T22:07:35.555Z,2.77
2023-04-14T22:10:03.333Z,3.27
2023-04-14T22:12:35.787Z,3.10
2023-04-14T22:15:04.163Z,2.83
2023-04-14T22:17:31.171Z,2.80
2023-04-14T22:19:57.788Z,3.20
2023-04-14T22:22:24.388Z,2.77
2023-04-14T22:24:51.742Z,3.37
2023-04-14T22:27:18.293Z,2.93
2023-04-14T22:29:44.804Z,3.73
2023-04-14T22:32:11.774Z,2.47
2023-04-14T22:34:38.211Z,2.50
2023-04-14T22:37:04.756Z,2.60
2023-04-14T22:39:31.280Z,2.40
2023-04-14T22:41:57.708Z,2.53
2023-04-14T22:44:24.243Z,2.40
2023-04-14T22:46:50.839Z,3.10
2023-04-14T22:49:17.311Z,3.10
2023-04-14T22:51:43.766Z,2.57
2023-04-14T22:54:10.289Z,2.73
2023-04-14T22:56:37.201Z,2.40
2023-04-14T22:59:03.950Z,2.80
2023-04-14T23:01:30.950Z,2.60
2023-04-14T23:03:57.479Z,2.37
2023-04-14T23:06:24.610Z,2.17
2023-04-14T23:08:51.279Z,2.60
2023-04-14T23:11:21.088Z,2.20
2023-04-14T23:13:48.998Z,2.20
2023-04-14T23:16:19.666Z,2.70
2023-04-14T23:18:52.957Z,3.03
2023-04-14T23:21:22.108Z,3.13
2023-04-14T23:23:51.847Z,3.00
2023-04-14T23:26:19.621Z,2.20
2023-04-14T23:28:46.335Z,2.93
2023-04-14T23:31:12.882Z,2.50
2023-04-14T23:33:40.409Z,2.90
2023-04-14T23:36:07.722Z,2.77
2023-04-14T23:38:34.356Z,2.83
2023-04-14T23:41:01.379Z,2.57
2023-04-14T23:43:29.082Z,2.37
2023-04-14T23:45:56.107Z,2.40
2023-04-14T23:48:22.701Z,2.47
2023-04-14T23:50:59.980Z,2.43
2023-04-14T23:53:36.055Z,2.63
2023-04-14T23:56:03.921Z,2.23
2023-04-14T23:58:30.638Z,2.30
